Terminal Aerodrome Forecast
Issued by NWS Wilmington, OH

Current Version | Previous Version | Graphics & Text | Print | Product List | Glossary On
Versions: 1 2 3 4 5 6 7 8 9 10 11 12 13 14 15 16 17 18 19
000
FTUS41 KILN 161700
TAFDAY
TAF
KDAY 161740Z 1618/1718 01007KT P6SM OVC025
     FM162000 02007KT P6SM BKN025
     FM170000 01004KT P6SM SKC
     FM170800 VRB03KT 4SM BR SKC
     FM171300 VRB03KT P6SM SCT015
     FM171500 25005KT P6SM BKN035=

USA.gov is the U.S. government's official web portal to all federal, state and local government web resources and services.